Time;durP1;ratioP1;P1;durP2;ratioP2;P2;SDS_P1;SDS_P2;PMS_P1;PMS_P2;Temp;Humidity;BMP_temperature;BMP_pressure;BME280_temperature;BME280_humidity;BME280_pressure;Samples;Min_cycle;Max_cycle;Signal;HPM_P1;HPM_P2
2021/11/20 00:21:59;;;;;;;9.3;14.4;;;;;;;10.4;74.2;99220;;;;
2021/11/20 00:31:59;;;;;;;9.3;14.4;;;;;;;10.4;74.2;99210;;;;
2021/11/20 00:42:59;;;;;;;9.3;14.4;;;;;;;10.4;74.1;99190;;;;
2021/11/20 00:52:59;;;;;;;9.2;13.9;;;;;;;10.4;73.8;99190;;;;
2021/11/20 01:02:59;;;;;;;9.2;13.9;;;;;;;10.4;73.4;99190;;;;
2021/11/20 01:12:59;;;;;;;9.2;13.9;;;;;;;10.5;73.3;99180;;;;
2021/11/20 01:23:59;;;;;;;8.4;12.5;;;;;;;10.5;72.6;99160;;;;
2021/11/20 01:33:59;;;;;;;8.4;12.5;;;;;;;10.4;72.7;99150;;;;
2021/11/20 01:44:59;;;;;;;8.4;12.5;;;;;;;10.4;72.6;99140;;;;
2021/11/20 01:55:59;;;;;;;7.9;13.5;;;;;;;10.4;72.3;99140;;;;
2021/11/20 02:06:59;;;;;;;7.9;13.5;;;;;;;10.4;71.8;99130;;;;
2021/11/20 02:16:59;;;;;;;6;9.7;;;;;;;10.4;71.3;99120;;;;
2021/11/20 02:27:59;;;;;;;6;9.7;;;;;;;10.5;71.4;99100;;;;
2021/11/20 02:37:59;;;;;;;6;9.7;;;;;;;10.4;71.2;99100;;;;
2021/11/20 02:47:59;;;;;;;6.4;11.1;;;;;;;10.4;71.3;99100;;;;
2021/11/20 02:58:59;;;;;;;6.4;11.1;;;;;;;10.4;71.4;99100;;;;
2021/11/20 03:09:59;;;;;;;6.4;11.1;;;;;;;10.4;71.3;99100;;;;
2021/11/20 03:19:59;;;;;;;6.2;11.6;;;;;;;10.4;71.2;99110;;;;
2021/11/20 03:30:59;;;;;;;6.2;11.6;;;;;;;10.4;71.3;99090;;;;
2021/11/20 03:40:59;;;;;;;6.2;11.6;;;;;;;10.4;71.1;99130;;;;
2021/11/20 03:51:59;;;;;;;5.7;14.5;;;;;;;10.4;71.5;99130;;;;
2021/11/20 04:02:59;;;;;;;5.7;14.5;;;;;;;10.3;72;99160;;;;
2021/11/20 04:12:59;;;;;;;5.7;14.5;;;;;;;10.3;72.6;99160;;;;
2021/11/20 04:22:59;;;;;;;5.7;9.2;;;;;;;10.2;73.3;99180;;;;
2021/11/20 04:33:59;;;;;;;5.7;9.2;;;;;;;10;74.7;99170;;;;
2021/11/20 04:43:59;;;;;;;5.7;9.2;;;;;;;9.9;75.6;99190;;;;
2021/11/20 04:55:00;;;;;;;5.7;8.9;;;;;;;9.7;77.2;99180;;;;
2021/11/20 05:04:59;;;;;;;5.7;8.9;;;;;;;9.6;77.8;99160;;;;
2021/11/20 05:14:59;;;;;;;8.1;11;;;;;;;9.4;78.9;99170;;;;
2021/11/20 05:25:59;;;;;;;8.1;11;;;;;;;9.3;79.8;99180;;;;
2021/11/20 05:36:59;;;;;;;8.1;11;;;;;;;9.3;80.2;99190;;;;
2021/11/20 05:46:59;;;;;;;11;16.1;;;;;;;9.4;80.2;99200;;;;
2021/11/20 05:56:59;;;;;;;11;16.1;;;;;;;9.4;79.9;99210;;;;
2021/11/20 06:07:59;;;;;;;11;16.1;;;;;;;9.5;79.8;99230;;;;
2021/11/20 06:17:59;;;;;;;12.8;15.4;;;;;;;9.5;79.7;99220;;;;
2021/11/20 06:28:59;;;;;;;12.8;15.4;;;;;;;9.6;79.3;99250;;;;
2021/11/20 06:38:59;;;;;;;12.8;15.4;;;;;;;9.6;78.9;99260;;;;
2021/11/20 06:49:59;;;;;;;13.9;16.8;;;;;;;9.8;78.2;99260;;;;
2021/11/20 07:00:31;;;;;;;13.9;16.8;;;;;;;9.8;77.9;99290;;;;
2021/11/20 07:09:59;;;;;;;13.9;16.8;;;;;;;9.9;77.5;99310;;;;
2021/11/20 07:19:59;;;;;;;12.2;15.4;;;;;;;10.1;77;99310;;;;
2021/11/20 07:30:59;;;;;;;12.2;15.4;;;;;;;10.2;76.4;99310;;;;
2021/11/20 07:40:59;;;;;;;12.2;15.4;;;;;;;10.3;75.3;99320;;;;
2021/11/20 07:50:59;;;;;;;12.1;14.8;;;;;;;10.4;75.1;99320;;;;
2021/11/20 08:01:59;;;;;;;12.1;14.8;;;;;;;10.6;74.6;99310;;;;
2021/11/20 08:12:59;;;;;;;12.1;14.8;;;;;;;10.8;74.2;99310;;;;
2021/11/20 08:22:59;;;;;;;13.7;17.7;;;;;;;11.2;73;99310;;;;
2021/11/20 08:33:59;;;;;;;13.7;17.7;;;;;;;11.4;72;99310;;;;
2021/11/20 08:43:59;;;;;;;13.7;17.7;;;;;;;11.5;71.4;99320;;;;
2021/11/20 08:53:59;;;;;;;9.8;14;;;;;;;11.6;71.4;99320;;;;
2021/11/20 09:03:59;;;;;;;9.8;14;;;;;;;11.8;70.6;99310;;;;
2021/11/20 09:14:59;;;;;;;9.7;13.7;;;;;;;11.9;70.1;99300;;;;
2021/11/20 09:24:59;;;;;;;9.7;13.7;;;;;;;12;70.1;99320;;;;
2021/11/20 09:34:59;;;;;;;9.7;13.7;;;;;;;12.1;70.3;99300;;;;
2021/11/20 09:45:59;;;;;;;10.8;13.3;;;;;;;12.1;70.3;99300;;;;
2021/11/20 09:56:59;;;;;;;10.8;13.3;;;;;;;12;70.7;99300;;;;
2021/11/20 10:06:59;;;;;;;10.8;13.3;;;;;;;11.8;71;99290;;;;
2021/11/20 10:16:59;;;;;;;9.9;11.5;;;;;;;11.9;71.1;99270;;;;
2021/11/20 10:26:59;;;;;;;9.9;11.5;;;;;;;11.9;71;99280;;;;
2021/11/20 10:36:59;;;;;;;9.9;11.5;;;;;;;12;71.3;99280;;;;
2021/11/20 10:46:59;;;;;;;10.1;15.5;;;;;;;11.9;70.9;99250;;;;
2021/11/20 10:57:59;;;;;;;10.1;15.5;;;;;;;11.9;71.6;99240;;;;
2021/11/20 11:08:59;;;;;;;10.1;15.5;;;;;;;11.7;72.6;99240;;;;
2021/11/20 11:18:59;;;;;;;9.6;11.7;;;;;;;11.4;73.8;99230;;;;
2021/11/20 11:29:59;;;;;;;9.6;11.7;;;;;;;11.4;74.5;99240;;;;
2021/11/20 11:39:59;;;;;;;9.6;11.7;;;;;;;11.2;75.7;99240;;;;
2021/11/20 11:49:59;;;;;;;7.6;11.4;;;;;;;10.8;77.2;99240;;;;
2021/11/20 11:59:59;;;;;;;7.6;11.4;;;;;;;10.9;77.5;99220;;;;
2021/11/20 12:11:00;;;;;;;7.6;11.4;;;;;;;10.9;77.8;99200;;;;
2021/11/20 12:21:01;;;;;;;10.6;14.2;;;;;;;10.9;77.7;99180;;;;
2021/11/20 12:30:59;;;;;;;10.6;14.2;;;;;;;10.8;77.8;99170;;;;
2021/11/20 12:41:59;;;;;;;10.6;14.2;;;;;;;10.8;77.5;99160;;;;
2021/11/20 12:52:00;;;;;;;10.1;14.2;;;;;;;10.7;78.7;99150;;;;
2021/11/20 13:01:59;;;;;;;10.1;14.2;;;;;;;10.8;78.7;99140;;;;
2021/11/20 13:12:59;;;;;;;10.1;14.2;;;;;;;10.8;79;99130;;;;
2021/11/20 13:22:59;;;;;;;13.3;16.7;;;;;;;10.6;79.6;99120;;;;
2021/11/20 13:33:59;;;;;;;13.3;16.7;;;;;;;10.5;80.3;99130;;;;
2021/11/20 13:44:59;;;;;;;10.6;13.6;;;;;;;10.4;80.7;99120;;;;
2021/11/20 13:54:59;;;;;;;10.6;13.6;;;;;;;10.4;80.8;99120;;;;
2021/11/20 14:04:59;;;;;;;10.6;13.6;;;;;;;10.5;80.4;99120;;;;
2021/11/20 14:14:59;;;;;;;11;14.4;;;;;;;10.3;79.7;99100;;;;
2021/11/20 14:25:59;;;;;;;11;14.4;;;;;;;10.3;79.6;99110;;;;
2021/11/20 14:36:59;;;;;;;11;14.4;;;;;;;10.2;79.6;99110;;;;
2021/11/20 14:46:59;;;;;;;9.7;12.1;;;;;;;10.3;79.3;99110;;;;
2021/11/20 14:56:59;;;;;;;9.7;12.1;;;;;;;10.2;78.9;99100;;;;
2021/11/20 15:07:59;;;;;;;9.7;12.1;;;;;;;10.3;78.9;99100;;;;
2021/11/20 15:18:59;;;;;;;10;14.3;;;;;;;10.3;78;99090;;;;
2021/11/20 15:28:59;;;;;;;10;14.3;;;;;;;10.3;77.7;99080;;;;
2021/11/20 15:38:59;;;;;;;10;14.3;;;;;;;10.3;78.1;99070;;;;
2021/11/20 15:49:59;;;;;;;11.6;14.7;;;;;;;10.2;77.8;99060;;;;
2021/11/20 16:00:59;;;;;;;11.6;14.7;;;;;;;10.3;77.8;99040;;;;
2021/11/20 16:11:59;;;;;;;11.6;14.7;;;;;;;10.2;77.2;99030;;;;
2021/11/20 16:22:59;;;;;;;10.7;13.9;;;;;;;10.2;77.2;99020;;;;
2021/11/20 16:32:59;;;;;;;10.7;13.9;;;;;;;10.3;76.9;99010;;;;
2021/11/20 16:43:59;;;;;;;10.2;14.7;;;;;;;10.2;76.9;99010;;;;
2021/11/20 16:54:00;;;;;;;10.2;14.7;;;;;;;10.1;77.6;98990;;;;
2021/11/20 17:04:59;;;;;;;10.2;14.7;;;;;;;10;77.4;98970;;;;
2021/11/20 17:15:00;;;;;;;8.6;11;;;;;;;10.1;77;98950;;;;
2021/11/20 17:25:59;;;;;;;8.6;11;;;;;;;10.1;76.9;98940;;;;
2021/11/20 17:36:00;;;;;;;8.6;11;;;;;;;10.2;76.5;98940;;;;
2021/11/20 17:45:59;;;;;;;10.7;13.9;;;;;;;10.3;76;98930;;;;
2021/11/20 17:57:00;;;;;;;10.7;13.9;;;;;;;10.4;75.8;98910;;;;
2021/11/20 18:08:00;;;;;;;10.7;13.9;;;;;;;10.4;75.9;98910;;;;
2021/11/20 18:19:00;;;;;;;17.1;22.5;;;;;;;10.4;76;98910;;;;
2021/11/20 18:29:00;;;;;;;17.1;22.5;;;;;;;10.2;76.6;98900;;;;
2021/11/20 18:39:00;;;;;;;17.1;22.5;;;;;;;10.1;77;98900;;;;
2021/11/20 18:50:00;;;;;;;26.4;33.4;;;;;;;10.2;76.8;98880;;;;
2021/11/20 19:00:00;;;;;;;26.4;33.4;;;;;;;10.2;77;98880;;;;
2021/11/20 19:11:00;;;;;;;26.4;33.4;;;;;;;10.3;76.8;98870;;;;
2021/11/20 19:21:00;;;;;;;32.8;38.3;;;;;;;10.3;76.6;98870;;;;
2021/11/20 19:32:00;;;;;;;32.8;38.3;;;;;;;10.3;76.8;98860;;;;
2021/11/20 19:42:00;;;;;;;32.8;38.3;;;;;;;10.3;76.5;98850;;;;
2021/11/20 19:52:00;;;;;;;39.5;48.2;;;;;;;10.3;76.5;98840;;;;
2021/11/20 20:03:00;;;;;;;39.5;48.2;;;;;;;10.3;76.5;98830;;;;
2021/11/20 20:14:00;;;;;;;37.1;46.1;;;;;;;10.3;76.3;98820;;;;
2021/11/20 20:24:00;;;;;;;37.1;46.1;;;;;;;10.2;76.1;98810;;;;
2021/11/20 20:35:00;;;;;;;37.1;46.1;;;;;;;10.3;75.9;98820;;;;
2021/11/20 20:46:00;;;;;;;31;36.1;;;;;;;10.2;75.9;98810;;;;
2021/11/20 20:56:00;;;;;;;31;36.1;;;;;;;10.2;75.3;98800;;;;
2021/11/20 21:07:00;;;;;;;31;36.1;;;;;;;10.2;74.7;98800;;;;
2021/11/20 21:17:02;;;;;;;23.1;28.6;;;;;;;10.2;74.2;98790;;;;
2021/11/20 21:28:00;;;;;;;23.1;28.6;;;;;;;10.3;74.1;98780;;;;
2021/11/20 21:39:00;;;;;;;23.1;28.6;;;;;;;10.3;73.1;98770;;;;
2021/11/20 21:49:00;;;;;;;19.5;27.4;;;;;;;10.3;73.1;98760;;;;
2021/11/20 21:59:00;;;;;;;19.5;27.4;;;;;;;10.2;73.1;98760;;;;
2021/11/20 22:10:00;;;;;;;19.5;27.4;;;;;;;10.2;72.6;98730;;;;
2021/11/20 22:20:00;;;;;;;9.6;12;;;;;;;10.2;72.7;98720;;;;
2021/11/20 22:31:00;;;;;;;9.6;12;;;;;;;10.2;72.4;98700;;;;
2021/11/20 22:42:00;;;;;;;9.6;12;;;;;;;10.2;72.4;98690;;;;
2021/11/20 22:52:00;;;;;;;10.1;12.9;;;;;;;10.1;72.7;98680;;;;
2021/11/20 23:02:00;;;;;;;10.1;12.9;;;;;;;10.1;72.5;98670;;;;
2021/11/20 23:13:00;;;;;;;10.1;12.9;;;;;;;10.2;72.7;98660;;;;
2021/11/20 23:23:00;;;;;;;10.5;13.7;;;;;;;10.2;72.7;98650;;;;
2021/11/20 23:34:00;;;;;;;10.5;13.7;;;;;;;10.1;72.8;98630;;;;
2021/11/20 23:45:00;;;;;;;8.4;10.9;;;;;;;10;73;98620;;;;
2021/11/20 23:55:00;;;;;;;8.4;10.9;;;;;;;9.9;73.2;98620;;;;
